Flight Track Log - Related Links

Times and Time Zones

All times are in EDT time to prevent confusion due to time zone crossing. See the SKW5339 flight status page for this flight to view local times or setup timezone preferences in your user account.

Time Position Orientation Groundspeed Altitude Reporting Facility
EDT Latitude Longitude Course Direction KTS MPH feet Rate Location/Type
Sat 09:15:58 AM 44.2686 -121.1272 315° West 150 173 4,100  Level Seattle Center
Sat 09:16:58 AM 44.2911 -121.1739 304° West 197 227 5,500 1,400 Climbing Seattle Center
Sat 09:17:58 AM 44.3100 -121.2469 290° West 197 227 6,900 1,438 Climbing Seattle Center
Sat 09:18:59 AM 44.3400 -121.3153 302° West 205 236 8,400 1,438 Climbing Seattle Center
Sat 09:19:00 AM 44.3274 -121.4251 315° West  Level FlightAware Approximate
Sat 09:19:59 AM 44.3817 -121.3750 314° West 211 243 9,800  Level Seattle Center
Sat 09:20:00 AM 44.3776 -121.5052 305° West  Level FlightAware Approximate
Sat 09:21:00 AM 44.4209 -121.5692 315° West  Level FlightAware Approximate
Sat 09:21:00 AM 44.4228 -121.4403 311° West 220 253 11,500  Level Seattle Center
Sat 09:22:00 AM 44.4586 -121.5064 307° West 216 249 13,200 1,686 Climbing Seattle Center
Sat 09:23:01 AM 44.4958 -121.5669 311° West 208 239 14,900 1,388 Climbing Seattle Center
Sat 09:24:01 AM 44.5278 -121.6236 308° West 193 222 16,000 600 Climbing Seattle Center
Sat 09:25:01 AM 44.5669 -121.6889 310° West 213 245 16,100 50 Climbing Seattle Center
Sat 09:26:02 AM 44.6108 -121.7639 309° West 240 276 16,100 50 Level Seattle Center
Sat 09:27:02 AM 44.6522 -121.8358 309° West 239 275 16,200 -50 Climbing Seattle Center
Sat 09:28:03 AM 44.6908 -121.9056 308° West 237 273 16,000 -744 Descending Seattle Center
Sat 09:29:03 AM 44.7389 -121.9878 309° West 253 291 14,700 -1,462 Descending Seattle Center
Sat 09:29:21 AM 44.7600 -122.0239 309° West 281 323 14,100 -984 Descending Seattle Center
Sat 09:30:04 AM 44.7869 -122.0711 309° West 270 311 13,700 -699 Descending Seattle Center
Sat 09:31:04 AM 44.8344 -122.1528 309° West 271 312 12,900 -1,091 Descending Seattle Center
Sat 09:32:05 AM 44.9106 -122.1878 342° North 257 296 11,500 -1,377 Descending Seattle Center
Sat 09:33:06 AM 44.9811 -122.2125 346° North 260 299 10,100 -1,190 Descending Seattle Center
Sat 09:34:06 AM 45.0514 -122.2358 347° North 261 300 9,100 -1,000 Descending Seattle Center
Sat 09:34:24 AM 45.0703 -122.2411 349° North 251 289 8,800 -1,000 Descending Seattle Center
Sat 09:35:06 AM 45.1153 -122.2561 347° North 247 284 8,100 -627 Descending Seattle Center
Sat 09:35:31 AM 45.1419 -122.2636 349° North 229 264 8,100  Level Seattle Center
Sat 09:36:07 AM 45.1767 -122.2764 345° North 234 269 8,100 -358 Level Seattle Center
Sat 09:36:38 AM 45.2061 -122.2894 343° North 227 261 7,700 -1,000 Descending Seattle Center
Sat 09:37:07 AM 45.2361 -122.3033 342° North 229 264 7,100 -1,125 Descending Seattle Center
Sat 09:37:26 AM 45.2639 -122.3178 340° North 268 308 6,800 -984 Descending Seattle Center
Sat 09:38:08 AM 45.3069 -122.3372 342° North 261 300 6,100 -984 Descending Seattle Center
Sat 09:38:27 AM 45.3336 -122.3506 341° North 263 303 5,800 -1,100 Descending Seattle Center
Sat 09:39:08 AM 45.3767 -122.3714 341° North 265 305 5,000 -1,300 Descending Seattle Center
Sat 09:39:27 AM 45.4058 -122.3853 342° North 267 307 4,500 -1,475 Descending Seattle Center
Sat 09:40:09 AM 45.4469 -122.4022 344° North 267 307 3,500 -1,433 Descending Seattle Center
Sat 09:40:34 AM 45.4819 -122.4186 342° North 260 299 2,900 -900 Descending Seattle Center
Sat 09:41:09 AM 45.5128 -122.4333 342° North 257 296 2,600 -689 Descending Seattle Center
Sat 09:41:35 AM 45.5364 -122.4517 331° Northwest 199 229 2,200 -923 Descending Seattle Center

Login

Don't have an account? Register now (free) for customized features, flight alerts, and more!